KLM861 EHAM-RJAA
Flight info
| Callsign | KLM861 |
|---|---|
| Flight time | N/A |
| Altitude | 31000 |
| Route | ARNEM3S ARNEM L620 HMM DCT NOMKA L620 OMELO DCT OMIFU DCT ROMIS DCT DEMOP DCT DINRO DCT UDROS DCT CRM/N0489F330 UM11 TBN UG261 NOLGA DCT BARAD M747 SUBUT T916 BALUN/K0900F330 T916 TUROK/K0895F350 T916 PIGAL M610 RULAD/K0895S1070 A343 POSOT B215 FKG W188 LIKMI W270 DKO W69 GUVBA/K0887S1130 W69 HUR B339 LADIX W34 VAPGU W100 ORAVA W201 UNSEK A326 DONVO G597 AGAVO/N0484F370 Y644 EGOBA Y697 LANAT Y51 SAMON Y517 ESKAS Y303 ENTAK/N0490F380 Y30 SWAMP SWAMPE |
| Aircraft | B77W/H-SDE1E2E3FGHIJ2J3J4J5M1RWXY/LB1D1 |
Departure
| Time | 2026-04-17 12:16 |
|---|---|
| Airport | Amsterdam Airport Schiphol (EHAM) |
Arrival
| Time | N/A |
|---|---|
| Airport | Narita International Airport (RJAA) |
| Time | Latitude | Longitude | Altitude | Speed | Heading |
|---|---|---|---|---|---|
| 2026-04-17 11:41 | 52.31264 | 4.76056 | 4 ft | 0 kts | 109° |
| 2026-04-17 12:00 | 52.31267 | 4.76042 | 4 ft | 4 kts | 110° |
| 2026-04-17 12:00 | 52.31277 | 4.76000 | 6 ft | 4 kts | 109° |
| 2026-04-17 12:01 | 52.31282 | 4.75960 | 4 ft | 4 kts | 75° |
| 2026-04-17 12:01 | 52.31274 | 4.75942 | 7 ft | 3 kts | 21° |
| 2026-04-17 12:01 | 52.31249 | 4.75935 | 6 ft | 4 kts | 352° |
| 2026-04-17 12:01 | 52.31229 | 4.75940 | 5 ft | 0 kts | 357° |
| 2026-04-17 12:06 | 52.31268 | 4.75936 | 7 ft | 12 kts | 357° |
| 2026-04-17 12:06 | 52.31355 | 4.75929 | 3 ft | 12 kts | 357° |
| 2026-04-17 12:06 | 52.31420 | 4.75934 | 3 ft | 8 kts | 30° |
| 2026-04-17 12:07 | 52.31444 | 4.76021 | 4 ft | 9 kts | 78° |
| 2026-04-17 12:07 | 52.31451 | 4.76120 | 4 ft | 10 kts | 86° |
| 2026-04-17 12:07 | 52.31456 | 4.76240 | 4 ft | 11 kts | 86° |
| 2026-04-17 12:07 | 52.31460 | 4.76368 | 4 ft | 11 kts | 86° |
| 2026-04-17 12:08 | 52.31465 | 4.76494 | 4 ft | 11 kts | 87° |
| 2026-04-17 12:08 | 52.31469 | 4.76621 | 4 ft | 11 kts | 87° |
| 2026-04-17 12:08 | 52.31473 | 4.76753 | 4 ft | 13 kts | 87° |
| 2026-04-17 12:08 | 52.31479 | 4.76932 | 4 ft | 18 kts | 87° |
| 2026-04-17 12:09 | 52.31483 | 4.77087 | 4 ft | 11 kts | 92° |
| 2026-04-17 12:09 | 52.31445 | 4.77180 | 4 ft | 7 kts | 143° |
| 2026-04-17 12:09 | 52.31419 | 4.77257 | 4 ft | 8 kts | 120° |
| 2026-04-17 12:09 | 52.31387 | 4.77329 | 4 ft | 8 kts | 128° |
| 2026-04-17 12:10 | 52.31353 | 4.77398 | 4 ft | 8 kts | 129° |
| 2026-04-17 12:10 | 52.31315 | 4.77460 | 4 ft | 8 kts | 142° |
| 2026-04-17 12:10 | 52.31266 | 4.77496 | 4 ft | 8 kts | 168° |
| 2026-04-17 12:10 | 52.31211 | 4.77503 | 4 ft | 8 kts | 180° |
| 2026-04-17 12:11 | 52.31151 | 4.77497 | 4 ft | 9 kts | 183° |
| 2026-04-17 12:11 | 52.31090 | 4.77492 | 4 ft | 9 kts | 183° |
| 2026-04-17 12:11 | 52.31030 | 4.77486 | 4 ft | 9 kts | 183° |
| 2026-04-17 12:12 | 52.30857 | 4.77470 | 4 ft | 13 kts | 183° |
| 2026-04-17 12:12 | 52.30766 | 4.77461 | 4 ft | 13 kts | 183° |
| 2026-04-17 12:12 | 52.30687 | 4.77457 | 4 ft | 11 kts | 174° |
| 2026-04-17 12:12 | 52.30617 | 4.77502 | 4 ft | 10 kts | 153° |
| 2026-04-17 12:13 | 52.30584 | 4.77530 | 4 ft | 0 kts | 152° |
| 2026-04-17 12:13 | 52.30583 | 4.77530 | 4 ft | 1 kts | 152° |
| 2026-04-17 12:14 | 52.30558 | 4.77552 | 4 ft | 7 kts | 152° |
| 2026-04-17 12:14 | 52.30517 | 4.77587 | 3 ft | 7 kts | 152° |
| 2026-04-17 12:14 | 52.30475 | 4.77623 | 4 ft | 7 kts | 152° |
| 2026-04-17 12:14 | 52.30430 | 4.77635 | 4 ft | 7 kts | 201° |
| 2026-04-17 12:15 | 52.30395 | 4.77581 | 3 ft | 7 kts | 232° |
| 2026-04-17 12:15 | 52.30355 | 4.77483 | 2 ft | 19 kts | 237° |
| 2026-04-17 12:15 | 52.30285 | 4.77302 | 1 ft | 46 kts | 238° |
| 2026-04-17 12:15 | 52.29809 | 4.76063 | 0 ft | 146 kts | 238° |
| 2026-04-17 12:16 | 52.29147 | 4.74346 | 10 ft | 205 kts | 238° |
| 2026-04-17 12:16 | 52.28643 | 4.72966 | 304 ft | 208 kts | 238° |
| 2026-04-17 12:16 | 52.27917 | 4.71019 | 1183 ft | 202 kts | 235° |
| 2026-04-17 12:16 | 52.27135 | 4.69112 | 1998 ft | 200 kts | 233° |
| 2026-04-17 12:17 | 52.26175 | 4.67412 | 2369 ft | 211 kts | 216° |
| 2026-04-17 12:17 | 52.24866 | 4.66273 | 2882 ft | 213 kts | 195° |
| 2026-04-17 12:17 | 52.23368 | 4.66247 | 3312 ft | 226 kts | 163° |
| 2026-04-17 12:17 | 52.22024 | 4.67762 | 3503 ft | 252 kts | 126° |
| 2026-04-17 12:18 | 52.21450 | 4.70466 | 4175 ft | 250 kts | 102° |
| 2026-04-17 12:18 | 52.21118 | 4.73433 | 4960 ft | 250 kts | 110° |
| 2026-04-17 12:18 | 52.20538 | 4.75966 | 5236 ft | 262 kts | 118° |
| 2026-04-17 12:18 | 52.19763 | 4.78706 | 5752 ft | 268 kts | 117° |
| 2026-04-17 12:19 | 52.18984 | 4.81407 | 6472 ft | 266 kts | 120° |
| 2026-04-17 12:19 | 52.18113 | 4.84108 | 7140 ft | 267 kts | 122° |
| 2026-04-17 12:19 | 52.17226 | 4.86736 | 7627 ft | 272 kts | 115° |
| 2026-04-17 12:19 | 52.16937 | 4.89884 | 7837 ft | 292 kts | 81° |
| 2026-04-17 12:20 | 52.17618 | 4.92985 | 8466 ft | 290 kts | 65° |
| 2026-04-17 12:20 | 52.18491 | 4.95952 | 9094 ft | 291 kts | 68° |
| 2026-04-17 12:20 | 52.19251 | 4.99040 | 9644 ft | 295 kts | 72° |
| 2026-04-17 12:20 | 52.19910 | 5.02236 | 10172 ft | 299 kts | 75° |
| 2026-04-17 12:21 | 52.20531 | 5.05523 | 10561 ft | 310 kts | 74° |
| 2026-04-17 12:21 | 52.21215 | 5.08930 | 10707 ft | 329 kts | 73° |
| 2026-04-17 12:21 | 52.21945 | 5.12597 | 10871 ft | 349 kts | 74° |
| 2026-04-17 12:21 | 52.22692 | 5.16486 | 11042 ft | 369 kts | 74° |
| 2026-04-17 12:22 | 52.23463 | 5.20593 | 11304 ft | 386 kts | 74° |
| 2026-04-17 12:22 | 52.24229 | 5.24843 | 11748 ft | 392 kts | 78° |
| 2026-04-17 12:22 | 52.24434 | 5.29252 | 12098 ft | 393 kts | 98° |
| 2026-04-17 12:22 | 52.24096 | 5.33718 | 12611 ft | 399 kts | 99° |
| 2026-04-17 12:23 | 52.23794 | 5.38249 | 13336 ft | 403 kts | 97° |
| 2026-04-17 12:23 | 52.23545 | 5.42815 | 14068 ft | 406 kts | 97° |
| 2026-04-17 12:23 | 52.23311 | 5.47431 | 14657 ft | 411 kts | 97° |
| 2026-04-17 12:23 | 52.23064 | 5.52095 | 15248 ft | 412 kts | 99° |
| 2026-04-17 12:24 | 52.22398 | 5.56634 | 15622 ft | 415 kts | 114° |
| 2026-04-17 12:24 | 52.21280 | 5.60985 | 16170 ft | 418 kts | 116° |
| 2026-04-17 12:24 | 52.20123 | 5.65343 | 16812 ft | 421 kts | 116° |
| 2026-04-17 12:24 | 52.18977 | 5.69761 | 17428 ft | 425 kts | 115° |
| 2026-04-17 12:25 | 52.17846 | 5.74239 | 18034 ft | 430 kts | 115° |
| 2026-04-17 12:25 | 52.16719 | 5.78782 | 18590 ft | 434 kts | 114° |
| 2026-04-17 12:25 | 52.15590 | 5.83380 | 19102 ft | 439 kts | 114° |
| 2026-04-17 12:25 | 52.14454 | 5.88012 | 19633 ft | 442 kts | 114° |
| 2026-04-17 12:26 | 52.13308 | 5.92683 | 20144 ft | 445 kts | 114° |
| 2026-04-17 12:26 | 52.12157 | 5.97363 | 20687 ft | 448 kts | 114° |
| 2026-04-17 12:26 | 52.10993 | 6.02078 | 21190 ft | 451 kts | 114° |
| 2026-04-17 12:26 | 52.09833 | 6.06773 | 21669 ft | 455 kts | 113° |
| 2026-04-17 12:27 | 52.08919 | 6.11729 | 22097 ft | 461 kts | 103° |
| 2026-04-17 12:27 | 52.08399 | 6.16913 | 22550 ft | 466 kts | 99° |
| 2026-04-17 12:27 | 52.07956 | 6.22154 | 23034 ft | 469 kts | 99° |
| 2026-04-17 12:27 | 52.07501 | 6.27421 | 23519 ft | 472 kts | 99° |
| 2026-04-17 12:28 | 52.07007 | 6.32718 | 23966 ft | 475 kts | 100° |
| 2026-04-17 12:28 | 52.06477 | 6.38035 | 24347 ft | 479 kts | 101° |
| 2026-04-17 12:28 | 52.05923 | 6.43375 | 24756 ft | 481 kts | 101° |
| 2026-04-17 12:28 | 52.05355 | 6.48738 | 25155 ft | 483 kts | 101° |
| 2026-04-17 12:29 | 52.04780 | 6.54138 | 25510 ft | 486 kts | 101° |
| 2026-04-17 12:29 | 52.04202 | 6.59562 | 25862 ft | 490 kts | 100° |
| 2026-04-17 12:29 | 52.03619 | 6.65029 | 26204 ft | 493 kts | 100° |
| 2026-04-17 12:29 | 52.03031 | 6.70531 | 26562 ft | 495 kts | 100° |
| 2026-04-17 12:30 | 52.02431 | 6.76050 | 26911 ft | 498 kts | 101° |
| 2026-04-17 12:30 | 52.01645 | 6.81539 | 27238 ft | 501 kts | 105° |
| 2026-04-17 12:30 | 52.00748 | 6.87023 | 27571 ft | 503 kts | 105° |
| 2026-04-17 12:30 | 51.99845 | 6.92523 | 27894 ft | 506 kts | 105° |
| 2026-04-17 12:31 | 51.98952 | 6.98053 | 28211 ft | 508 kts | 105° |
| 2026-04-17 12:31 | 51.98060 | 7.03622 | 28527 ft | 511 kts | 104° |
| 2026-04-17 12:31 | 51.97160 | 7.09215 | 28802 ft | 514 kts | 105° |
| 2026-04-17 12:31 | 51.96234 | 7.14746 | 29059 ft | 516 kts | 106° |
| 2026-04-17 12:32 | 51.95214 | 7.20351 | 29331 ft | 519 kts | 107° |
| 2026-04-17 12:32 | 51.94155 | 7.25953 | 29590 ft | 521 kts | 107° |
| 2026-04-17 12:32 | 51.93083 | 7.31575 | 29849 ft | 523 kts | 107° |
| 2026-04-17 12:32 | 51.92013 | 7.37220 | 30159 ft | 523 kts | 107° |
| 2026-04-17 12:33 | 51.90956 | 7.42841 | 30481 ft | 522 kts | 107° |
| 2026-04-17 12:33 | 51.89900 | 7.48485 | 30806 ft | 521 kts | 106° |
| 2026-04-17 12:33 | 51.88850 | 7.54093 | 31086 ft | 521 kts | 106° |
| 2026-04-17 12:34 | 51.86733 | 7.65353 | 31204 ft | 525 kts | 107° |
| 2026-04-17 12:34 | 51.84789 | 7.76693 | 31217 ft | 519 kts | 102° |
| 2026-04-17 12:35 | 51.83293 | 7.88006 | 31207 ft | 518 kts | 101° |
| 2026-04-17 12:35 | 51.81815 | 7.99452 | 31210 ft | 517 kts | 101° |
| 2026-04-17 12:37 | 51.75558 | 8.44941 | 31212 ft | 520 kts | 101° |
| 2026-04-17 12:38 | 51.73953 | 8.56346 | 31210 ft | 521 kts | 102° |
| 2026-04-17 12:38 | 51.72334 | 8.67762 | 31199 ft | 520 kts | 102° |
| 2026-04-17 12:39 | 51.70721 | 8.79059 | 31213 ft | 519 kts | 101° |
| 2026-04-17 12:39 | 51.69090 | 8.90386 | 31201 ft | 518 kts | 102° |
| 2026-04-17 12:40 | 51.67454 | 9.01671 | 31196 ft | 517 kts | 102° |
| 2026-04-17 12:40 | 51.65807 | 9.12950 | 31208 ft | 516 kts | 102° |
| 2026-04-17 12:41 | 51.64154 | 9.24190 | 31202 ft | 516 kts | 102° |
| 2026-04-17 12:41 | 51.62496 | 9.35382 | 31208 ft | 516 kts | 102° |
| 2026-04-17 12:42 | 51.60818 | 9.46624 | 31217 ft | 517 kts | 102° |
| 2026-04-17 12:42 | 51.59126 | 9.57885 | 31211 ft | 517 kts | 102° |
| 2026-04-17 12:43 | 51.57423 | 9.69136 | 31222 ft | 518 kts | 102° |
| 2026-04-17 12:43 | 51.55708 | 9.80389 | 31197 ft | 518 kts | 102° |
| 2026-04-17 12:44 | 51.53994 | 9.91554 | 31196 ft | 518 kts | 102° |
| 2026-04-17 12:44 | 51.52259 | 10.02780 | 31219 ft | 518 kts | 102° |
| 2026-04-17 12:45 | 51.50510 | 10.14018 | 31218 ft | 518 kts | 102° |
| 2026-04-17 12:45 | 51.48751 | 10.25248 | 31219 ft | 518 kts | 102° |
| 2026-04-17 12:46 | 51.46983 | 10.36454 | 31216 ft | 518 kts | 102° |
| 2026-04-17 12:46 | 51.45204 | 10.47670 | 31219 ft | 518 kts | 102° |
| 2026-04-17 12:47 | 51.43418 | 10.58870 | 31220 ft | 518 kts | 102° |
| 2026-04-17 12:47 | 51.41631 | 10.70061 | 31228 ft | 518 kts | 102° |
| 2026-04-17 12:48 | 51.39836 | 10.81240 | 31223 ft | 518 kts | 102° |
| 2026-04-17 12:48 | 51.38032 | 10.92390 | 31228 ft | 517 kts | 102° |
| 2026-04-17 12:49 | 51.36242 | 11.03472 | 31227 ft | 517 kts | 102° |
| 2026-04-17 12:49 | 51.34445 | 11.14622 | 31237 ft | 518 kts | 102° |
| 2026-04-17 12:50 | 51.32634 | 11.25775 | 31237 ft | 518 kts | 102° |
| 2026-04-17 12:50 | 51.30811 | 11.36910 | 31235 ft | 518 kts | 102° |
| 2026-04-17 12:51 | 51.28975 | 11.48047 | 31231 ft | 518 kts | 102° |
| 2026-04-17 12:51 | 51.27049 | 11.59133 | 31252 ft | 519 kts | 102° |
| 2026-04-17 12:52 | 51.25187 | 11.70281 | 31234 ft | 519 kts | 102° |
| 2026-04-17 12:52 | 51.23338 | 11.81422 | 31235 ft | 519 kts | 102° |
| 2026-04-17 12:53 | 51.21469 | 11.92530 | 31241 ft | 519 kts | 102° |
| 2026-04-17 12:53 | 51.19579 | 12.03567 | 31253 ft | 520 kts | 102° |
| 2026-04-17 12:54 | 51.17649 | 12.14674 | 31219 ft | 520 kts | 102° |
| 2026-04-17 12:54 | 51.15716 | 12.25768 | 31236 ft | 519 kts | 102° |
| 2026-04-17 12:55 | 51.13768 | 12.36836 | 31239 ft | 519 kts | 102° |
| 2026-04-17 12:55 | 51.11810 | 12.47891 | 31247 ft | 519 kts | 102° |
| 2026-04-17 12:56 | 51.09845 | 12.58953 | 31241 ft | 519 kts | 102° |
| 2026-04-17 12:56 | 51.07859 | 12.69993 | 31241 ft | 519 kts | 102° |
| 2026-04-17 12:57 | 51.05845 | 12.81036 | 31239 ft | 520 kts | 102° |
| 2026-04-17 12:57 | 51.03823 | 12.92064 | 31259 ft | 520 kts | 102° |
| 2026-04-17 12:58 | 51.01796 | 13.03082 | 31250 ft | 520 kts | 102° |
| 2026-04-17 12:58 | 50.99755 | 13.14109 | 31243 ft | 520 kts | 102° |
| 2026-04-17 12:59 | 50.97707 | 13.25119 | 31245 ft | 520 kts | 102° |
| 2026-04-17 12:59 | 50.95679 | 13.36042 | 31259 ft | 519 kts | 101° |
| 2026-04-17 13:00 | 50.93747 | 13.47085 | 31242 ft | 519 kts | 101° |
| 2026-04-17 13:00 | 50.91731 | 13.58081 | 31241 ft | 520 kts | 102° |
| 2026-04-17 13:01 | 50.89645 | 13.69054 | 31240 ft | 519 kts | 102° |
| 2026-04-17 13:01 | 50.87588 | 13.80007 | 31243 ft | 519 kts | 102° |
| 2026-04-17 13:02 | 50.85529 | 13.90972 | 31235 ft | 519 kts | 102° |
| 2026-04-17 13:02 | 50.82979 | 14.01710 | 31243 ft | 525 kts | 112° |
| 2026-04-17 13:03 | 50.79239 | 14.11706 | 31239 ft | 529 kts | 120° |
| 2026-04-17 13:03 | 50.75211 | 14.21447 | 31239 ft | 530 kts | 120° |
| 2026-04-17 13:04 | 50.71875 | 14.29570 | 31234 ft | 530 kts | 119° |
| 2026-04-17 13:04 | 50.67241 | 14.40937 | 31208 ft | 530 kts | 119° |
| 2026-04-17 13:05 | 50.63259 | 14.50693 | 31220 ft | 528 kts | 119° |
| 2026-04-17 13:05 | 50.59921 | 14.58839 | 31248 ft | 528 kts | 119° |
| 2026-04-17 13:06 | 50.55926 | 14.68550 | 31211 ft | 529 kts | 119° |
| 2026-04-17 13:06 | 50.51937 | 14.78205 | 31215 ft | 530 kts | 119° |
| 2026-04-17 13:07 | 50.47912 | 14.87915 | 31214 ft | 530 kts | 119° |
| 2026-04-17 13:07 | 50.43874 | 14.97618 | 31217 ft | 530 kts | 119° |
| 2026-04-17 13:08 | 50.39835 | 15.07290 | 31213 ft | 531 kts | 119° |
| 2026-04-17 13:08 | 50.35784 | 15.16952 | 31201 ft | 531 kts | 120° |
| 2026-04-17 13:09 | 50.31728 | 15.26593 | 31196 ft | 530 kts | 120° |
| 2026-04-17 13:09 | 50.27659 | 15.36228 | 31245 ft | 530 kts | 120° |
| 2026-04-17 13:10 | 50.23588 | 15.45834 | 31208 ft | 530 kts | 120° |
| 2026-04-17 13:10 | 50.19505 | 15.55433 | 31206 ft | 530 kts | 120° |
| 2026-04-17 13:11 | 50.15418 | 15.65008 | 31212 ft | 530 kts | 120° |
| 2026-04-17 13:11 | 50.11326 | 15.74559 | 31238 ft | 530 kts | 120° |
| 2026-04-17 13:12 | 50.07214 | 15.84124 | 31218 ft | 531 kts | 120° |
| 2026-04-17 13:12 | 50.01065 | 15.98376 | 31192 ft | 531 kts | 119° |
| 2026-04-17 13:13 | 49.97120 | 16.08057 | 31194 ft | 530 kts | 117° |
| 2026-04-17 13:13 | 49.93268 | 16.17825 | 31200 ft | 531 kts | 117° |
| 2026-04-17 13:14 | 49.89385 | 16.27579 | 31197 ft | 532 kts | 117° |
| 2026-04-17 13:14 | 49.85445 | 16.37342 | 31198 ft | 532 kts | 118° |
| 2026-04-17 13:15 | 49.81543 | 16.46945 | 31194 ft | 532 kts | 118° |
| 2026-04-17 13:15 | 49.77571 | 16.56689 | 31190 ft | 533 kts | 118° |
| 2026-04-17 13:16 | 49.73616 | 16.66362 | 31186 ft | 532 kts | 118° |
| 2026-04-17 13:16 | 49.69653 | 16.76022 | 31180 ft | 532 kts | 118° |
| 2026-04-17 13:17 | 49.65684 | 16.85658 | 31188 ft | 531 kts | 118° |
| 2026-04-17 13:17 | 49.61709 | 16.95277 | 31157 ft | 531 kts | 118° |
| 2026-04-17 13:18 | 49.57731 | 17.04869 | 31180 ft | 531 kts | 118° |
| 2026-04-17 13:18 | 49.53745 | 17.14445 | 31183 ft | 532 kts | 118° |
| 2026-04-17 13:19 | 49.49744 | 17.24022 | 31180 ft | 532 kts | 118° |
| 2026-04-17 13:19 | 49.45734 | 17.33587 | 31180 ft | 531 kts | 119° |
| 2026-04-17 13:20 | 49.41730 | 17.43097 | 31177 ft | 528 kts | 119° |
| 2026-04-17 13:20 | 49.37743 | 17.52536 | 31177 ft | 526 kts | 120° |
| 2026-04-17 13:21 | 49.33765 | 17.61924 | 31179 ft | 524 kts | 120° |
| 2026-04-17 13:21 | 49.29784 | 17.71287 | 31180 ft | 524 kts | 120° |
| 2026-04-17 13:22 | 49.25806 | 17.80608 | 31152 ft | 526 kts | 119° |
| 2026-04-17 13:22 | 49.21783 | 17.90006 | 31185 ft | 530 kts | 120° |
| 2026-04-17 13:23 | 49.18600 | 17.97417 | 31194 ft | 533 kts | 120° |
| 2026-04-17 13:23 | 49.14522 | 18.06882 | 31166 ft | 533 kts | 120° |
| 2026-04-17 13:24 | 49.10398 | 18.16250 | 31169 ft | 531 kts | 122° |
| 2026-04-17 13:24 | 49.06058 | 18.25353 | 31167 ft | 529 kts | 123° |
| 2026-04-17 13:25 | 49.01694 | 18.34361 | 31192 ft | 527 kts | 123° |
| 2026-04-17 13:25 | 48.97373 | 18.43360 | 31163 ft | 526 kts | 123° |
| 2026-04-17 13:26 | 48.93075 | 18.52346 | 31156 ft | 524 kts | 123° |
| 2026-04-17 13:26 | 48.88787 | 18.61294 | 31133 ft | 524 kts | 123° |
| 2026-04-17 13:27 | 48.84480 | 18.70250 | 31181 ft | 527 kts | 123° |
| 2026-04-17 13:27 | 48.80135 | 18.79247 | 31159 ft | 529 kts | 124° |
| 2026-04-17 13:28 | 48.75777 | 18.88238 | 31147 ft | 529 kts | 124° |
| 2026-04-17 13:28 | 48.71416 | 18.97203 | 31143 ft | 528 kts | 124° |
| 2026-04-17 13:29 | 48.67064 | 19.06124 | 31160 ft | 526 kts | 124° |
| 2026-04-17 13:29 | 48.62731 | 19.14973 | 31141 ft | 522 kts | 124° |
| 2026-04-17 13:30 | 48.58423 | 19.23745 | 31136 ft | 519 kts | 124° |
| 2026-04-17 13:30 | 48.54118 | 19.32483 | 31118 ft | 520 kts | 124° |
| 2026-04-17 13:31 | 48.49758 | 19.41310 | 31141 ft | 526 kts | 124° |
| 2026-04-17 13:31 | 48.45393 | 19.50109 | 31101 ft | 521 kts | 125° |
| 2026-04-17 13:32 | 48.41061 | 19.58814 | 31115 ft | 517 kts | 125° |
| 2026-04-17 13:32 | 48.36746 | 19.67459 | 31118 ft | 517 kts | 125° |
| 2026-04-17 13:33 | 48.32417 | 19.76108 | 31110 ft | 518 kts | 125° |
| 2026-04-17 13:33 | 48.28073 | 19.84757 | 31133 ft | 518 kts | 125° |
| 2026-04-17 13:34 | 48.23721 | 19.93394 | 31116 ft | 519 kts | 125° |
| 2026-04-17 13:34 | 48.19370 | 20.02008 | 31096 ft | 519 kts | 125° |
| 2026-04-17 13:35 | 48.15184 | 20.10840 | 31089 ft | 520 kts | 121° |
| 2026-04-17 13:35 | 48.11256 | 20.19897 | 31122 ft | 519 kts | 121° |
| 2026-04-17 13:36 | 48.07339 | 20.28918 | 31105 ft | 519 kts | 121° |
| 2026-04-17 13:36 | 48.03386 | 20.37939 | 31120 ft | 518 kts | 122° |
| 2026-04-17 13:37 | 47.99427 | 20.46918 | 31110 ft | 517 kts | 122° |
| 2026-04-17 13:37 | 47.95468 | 20.55861 | 31104 ft | 515 kts | 122° |
| 2026-04-17 13:38 | 47.91522 | 20.64749 | 31104 ft | 514 kts | 122° |
| 2026-04-17 13:38 | 47.87569 | 20.73625 | 31120 ft | 513 kts | 122° |
| 2026-04-17 13:39 | 47.83604 | 20.82502 | 31105 ft | 514 kts | 122° |
| 2026-04-17 13:39 | 47.79665 | 20.91289 | 31092 ft | 515 kts | 122° |
| 2026-04-17 13:40 | 47.75651 | 21.00217 | 31101 ft | 517 kts | 123° |
| 2026-04-17 13:40 | 47.71641 | 21.09107 | 31103 ft | 519 kts | 123° |
| 2026-04-17 13:41 | 47.67612 | 21.18008 | 31101 ft | 521 kts | 123° |
| 2026-04-17 13:41 | 47.63563 | 21.26925 | 31095 ft | 521 kts | 123° |
| 2026-04-17 13:42 | 47.59507 | 21.35829 | 31092 ft | 520 kts | 123° |
| 2026-04-17 13:42 | 47.55457 | 21.44691 | 31091 ft | 519 kts | 123° |
| 2026-04-17 13:43 | 47.51407 | 21.53524 | 31082 ft | 518 kts | 123° |
| 2026-04-17 13:43 | 47.47361 | 21.62318 | 31101 ft | 516 kts | 123° |
| 2026-04-17 13:44 | 47.43319 | 21.71077 | 31104 ft | 516 kts | 123° |
| 2026-04-17 13:44 | 47.39273 | 21.79820 | 31095 ft | 515 kts | 124° |
| 2026-04-17 13:45 | 47.35223 | 21.88540 | 31085 ft | 516 kts | 124° |
| 2026-04-17 13:45 | 47.31158 | 21.97265 | 31077 ft | 516 kts | 124° |
| 2026-04-17 13:46 | 47.27080 | 22.05991 | 31068 ft | 517 kts | 124° |
| 2026-04-17 13:46 | 47.23001 | 22.14692 | 31073 ft | 517 kts | 125° |
| 2026-04-17 13:47 | 47.18906 | 22.23397 | 31070 ft | 517 kts | 125° |
| 2026-04-17 13:47 | 47.14813 | 22.32072 | 31060 ft | 517 kts | 125° |
| 2026-04-17 13:48 | 47.10725 | 22.40712 | 31063 ft | 516 kts | 126° |
| 2026-04-17 13:48 | 47.07317 | 22.47892 | 31066 ft | 516 kts | 126° |
| 2026-04-17 13:49 | 47.03215 | 22.56510 | 31041 ft | 515 kts | 126° |
| 2026-04-17 13:49 | 46.99109 | 22.65109 | 31050 ft | 515 kts | 126° |
| 2026-04-17 13:50 | 46.94989 | 22.73712 | 31062 ft | 515 kts | 126° |
| 2026-04-17 13:50 | 46.90868 | 22.82289 | 31059 ft | 515 kts | 126° |
| 2026-04-17 13:51 | 46.86751 | 22.90831 | 31060 ft | 515 kts | 126° |
| 2026-04-17 13:51 | 46.82619 | 22.99379 | 31056 ft | 516 kts | 127° |
| 2026-04-17 13:52 | 46.78472 | 23.07932 | 31053 ft | 515 kts | 127° |
| 2026-04-17 13:52 | 46.74328 | 23.16450 | 31056 ft | 515 kts | 127° |
| 2026-04-17 13:53 | 46.70179 | 23.24954 | 31040 ft | 515 kts | 127° |
| 2026-04-17 13:53 | 46.66022 | 23.33451 | 31035 ft | 514 kts | 128° |
| 2026-04-17 13:54 | 46.59797 | 23.46125 | 31028 ft | 513 kts | 128° |
| 2026-04-17 13:55 | 46.53563 | 23.58753 | 31037 ft | 513 kts | 128° |
| 2026-04-17 13:56 | 46.45244 | 23.75526 | 31028 ft | 511 kts | 129° |
| 2026-04-17 13:56 | 46.41084 | 23.83873 | 31027 ft | 510 kts | 129° |
| 2026-04-17 13:57 | 46.36917 | 23.92209 | 31025 ft | 510 kts | 129° |
| 2026-04-17 13:58 | 46.30677 | 24.04649 | 31025 ft | 508 kts | 129° |
| 2026-04-17 13:58 | 46.24463 | 24.16980 | 31028 ft | 507 kts | 129° |
| 2026-04-17 13:59 | 46.18222 | 24.29312 | 31021 ft | 507 kts | 130° |
| 2026-04-17 14:00 | 46.14056 | 24.37515 | 31057 ft | 507 kts | 130° |
| 2026-04-17 14:00 | 46.09884 | 24.45704 | 31037 ft | 507 kts | 130° |
| 2026-04-17 14:01 | 46.05702 | 24.53888 | 31025 ft | 507 kts | 130° |
| 2026-04-17 14:01 | 46.01522 | 24.62046 | 31038 ft | 506 kts | 130° |
| 2026-04-17 14:02 | 45.97346 | 24.70171 | 31036 ft | 505 kts | 130° |
| 2026-04-17 14:02 | 45.93196 | 24.78223 | 31041 ft | 504 kts | 130° |
| 2026-04-17 14:03 | 45.89027 | 24.86291 | 31047 ft | 503 kts | 130° |
| 2026-04-17 14:03 | 45.84846 | 24.94355 | 31037 ft | 503 kts | 130° |
| 2026-04-17 14:04 | 45.80671 | 25.02386 | 31050 ft | 502 kts | 130° |
| 2026-04-17 14:04 | 45.76499 | 25.10389 | 31044 ft | 502 kts | 130° |
| 2026-04-17 14:05 | 45.72300 | 25.18420 | 31050 ft | 503 kts | 131° |
| 2026-04-17 14:05 | 45.68099 | 25.26432 | 31058 ft | 504 kts | 131° |
| 2026-04-17 14:06 | 45.63898 | 25.34421 | 31057 ft | 505 kts | 131° |
| 2026-04-17 14:06 | 45.59667 | 25.42446 | 31034 ft | 507 kts | 131° |
| 2026-04-17 14:07 | 45.55411 | 25.50494 | 31057 ft | 509 kts | 131° |
| 2026-04-17 14:07 | 45.51132 | 25.58564 | 31061 ft | 511 kts | 131° |
| 2026-04-17 14:08 | 45.46833 | 25.66648 | 31034 ft | 512 kts | 131° |
| 2026-04-17 14:08 | 45.42546 | 25.74691 | 31042 ft | 508 kts | 131° |
| 2026-04-17 14:09 | 45.38279 | 25.82673 | 31038 ft | 505 kts | 131° |
| 2026-04-17 14:09 | 45.34029 | 25.90598 | 31043 ft | 503 kts | 131° |
| 2026-04-17 14:10 | 45.29780 | 25.98494 | 31022 ft | 503 kts | 131° |
| 2026-04-17 14:10 | 45.25520 | 26.06392 | 31021 ft | 505 kts | 131° |
| 2026-04-17 14:11 | 45.21229 | 26.14325 | 31024 ft | 508 kts | 131° |
| 2026-04-17 14:11 | 45.16916 | 26.22278 | 31046 ft | 510 kts | 131° |
| 2026-04-17 14:12 | 45.12583 | 26.30246 | 31037 ft | 511 kts | 131° |
| 2026-04-17 14:12 | 45.08239 | 26.38213 | 31035 ft | 511 kts | 131° |
| 2026-04-17 14:13 | 45.01738 | 26.50094 | 31018 ft | 509 kts | 131° |
| 2026-04-17 14:13 | 44.97400 | 26.57995 | 31016 ft | 508 kts | 131° |
| 2026-04-17 14:14 | 44.93075 | 26.65849 | 31020 ft | 506 kts | 131° |
| 2026-04-17 14:14 | 44.88751 | 26.73679 | 31017 ft | 505 kts | 131° |
| 2026-04-17 14:15 | 44.84427 | 26.81488 | 31007 ft | 505 kts | 131° |
| 2026-04-17 14:15 | 44.80101 | 26.89279 | 31016 ft | 505 kts | 131° |
| 2026-04-17 14:16 | 44.75776 | 26.97047 | 31017 ft | 505 kts | 131° |
| 2026-04-17 14:16 | 44.71436 | 27.04821 | 31019 ft | 505 kts | 131° |
| 2026-04-17 14:17 | 44.67095 | 27.12577 | 31007 ft | 505 kts | 131° |
| 2026-04-17 14:17 | 44.62744 | 27.20328 | 31017 ft | 505 kts | 131° |
| 2026-04-17 14:18 | 44.58421 | 27.28009 | 31022 ft | 506 kts | 131° |
| 2026-04-17 14:18 | 44.54055 | 27.35748 | 31009 ft | 506 kts | 131° |
| 2026-04-17 14:19 | 44.49630 | 27.43568 | 31020 ft | 505 kts | 131° |
| 2026-04-17 14:19 | 44.45319 | 27.51166 | 31017 ft | 505 kts | 131° |
| 2026-04-17 14:20 | 44.40937 | 27.58870 | 31017 ft | 504 kts | 131° |
| 2026-04-17 14:20 | 44.36567 | 27.66532 | 31010 ft | 505 kts | 132° |
| 2026-04-17 14:21 | 44.32182 | 27.74199 | 31017 ft | 505 kts | 132° |
| 2026-04-17 14:21 | 44.27793 | 27.81852 | 31003 ft | 506 kts | 133° |
| 2026-04-17 14:22 | 44.23410 | 27.89475 | 31026 ft | 507 kts | 133° |
| 2026-04-17 14:22 | 44.18981 | 27.97157 | 31026 ft | 509 kts | 133° |
| 2026-04-17 14:23 | 44.14505 | 28.04900 | 31031 ft | 510 kts | 133° |
| 2026-04-17 14:23 | 44.10055 | 28.12579 | 31013 ft | 510 kts | 133° |
| 2026-04-17 14:24 | 44.05634 | 28.20190 | 31026 ft | 508 kts | 133° |
| 2026-04-17 14:24 | 44.01191 | 28.27817 | 31022 ft | 507 kts | 133° |
| 2026-04-17 14:25 | 43.96761 | 28.35400 | 31026 ft | 505 kts | 133° |
| 2026-04-17 14:25 | 43.92328 | 28.42968 | 31024 ft | 504 kts | 133° |
| 2026-04-17 14:26 | 43.87911 | 28.50490 | 31028 ft | 502 kts | 133° |
| 2026-04-17 14:26 | 43.83500 | 28.57983 | 31033 ft | 502 kts | 133° |
| 2026-04-17 14:27 | 43.79083 | 28.65465 | 31020 ft | 502 kts | 133° |
| 2026-04-17 14:27 | 43.74693 | 28.72887 | 31036 ft | 502 kts | 133° |
| 2026-04-17 14:28 | 43.70243 | 28.80396 | 31025 ft | 502 kts | 133° |
| 2026-04-17 14:28 | 43.66079 | 28.88177 | 31033 ft | 504 kts | 129° |
| 2026-04-17 14:29 | 43.61988 | 28.96059 | 31019 ft | 505 kts | 129° |
| 2026-04-17 14:29 | 43.57918 | 29.03863 | 31022 ft | 504 kts | 130° |
| 2026-04-17 14:30 | 43.53805 | 29.11693 | 31019 ft | 504 kts | 130° |
| 2026-04-17 14:30 | 43.49681 | 29.19507 | 30999 ft | 504 kts | 130° |
| 2026-04-17 14:31 | 43.45563 | 29.27290 | 31012 ft | 503 kts | 130° |
| 2026-04-17 14:31 | 43.41444 | 29.35056 | 31007 ft | 502 kts | 130° |
| 2026-04-17 14:32 | 43.37329 | 29.42794 | 30993 ft | 501 kts | 130° |
| 2026-04-17 14:32 | 43.33213 | 29.50513 | 31004 ft | 500 kts | 130° |
| 2026-04-17 14:33 | 43.29095 | 29.58217 | 31000 ft | 500 kts | 130° |
| 2026-04-17 14:33 | 43.24968 | 29.65918 | 30995 ft | 501 kts | 130° |
| 2026-04-17 14:34 | 43.20840 | 29.73601 | 30992 ft | 501 kts | 130° |
| 2026-04-17 14:34 | 43.16731 | 29.81229 | 30992 ft | 501 kts | 130° |
| 2026-04-17 14:35 | 43.12578 | 29.88918 | 30989 ft | 501 kts | 130° |